Sakaide Maru — 3EYR6 — position and weather

sailwx.info

Track history (hours):
 
Tides and Currents Weather Stations Pressure Air Temp Water Temp Dewpoint Dewpoint Depression Visibility Wind Speed Wind Dir Waves Ship Positions

Sakaide Maru

Last reported at 2017-Feb-13 08:08 UTC. Time now 2017-Feb-21 05:35 UTC.
Position N 33°58' E 134°57'.

Length 255 m; draft 7.8 m.

Type: Ship. MMSI: 354898000.

Date/timePositionNaut miles runAvg speedWind from/ knotsBaromVisibWave heightAir tempDewpointWater temp
2017-Feb-13 08:08N 33°58' E 134°57'813.1
2017-Feb-13 07:33N 34°06' E 134°57'1313.5
2017-Feb-13 06:33N 34°19' E 134°59'1413.8
2017-Feb-13 05:33N 34°32' E 135°05'9 8.6
2017-Feb-13 04:33N 34°36' E 134°56'1313.3
2017-Feb-13 03:32N 34°30' E 134°41'  
2017-Feb-07 02:25N 34°36' E 134°54'7 8.2
2017-Feb-07 01:31N 34°37' E 135°03'8 7.7
2017-Feb-07 00:33N 34°35' E 135°11'0 0.1
2017-Feb-06 23:25N 34°34' E 135°11'0 0.0
2017-Feb-06 22:31N 34°35' E 135°11'0 0.0
2017-Feb-06 21:31N 34°35' E 135°11'0 0.0
2017-Feb-06 20:31N 34°34' E 135°11'0 0.0
2017-Feb-06 19:25N 34°35' E 135°11'0 0.1
2017-Feb-06 18:31N 34°35' E 135°11'0 0.0
2017-Feb-06 17:31N 34°35' E 135°11'0 0.0
2017-Feb-06 16:31N 34°35' E 135°11'0 0.0
2017-Feb-06 15:31N 34°35' E 135°11'0 0.0
2017-Feb-06 14:31N 34°34' E 135°11'0 0.0
2017-Feb-06 13:31N 34°34' E 135°11'0 0.1
2017-Feb-06 12:31N 34°34' E 135°11'0 0.0
2017-Feb-06 11:31N 34°34' E 135°11'0 0.0
2017-Feb-06 10:25N 34°34' E 135°11'0 0.1
2017-Feb-06 09:31N 34°34' E 135°11'0 0.0
2017-Feb-06 08:19N 34°34' E 135°11'0 0.0
2017-Feb-06 06:31N 34°34' E 135°11'0 0.1
2017-Feb-06 05:31N 34°35' E 135°11'0 0.0
2017-Feb-06 04:31N 34°35' E 135°11'0 0.0
2017-Feb-06 03:31N 34°35' E 135°11'0 0.1
2017-Feb-06 02:31N 34°35' E 135°11'0 0.0
2017-Feb-06 01:31N 34°35' E 135°11'0 0.4
2017-Feb-06 00:33N 34°35' E 135°11'4 4.3
2017-Feb-05 23:33N 34°31' E 135°07'1110.9
2017-Feb-05 22:33N 34°22' E 135°02'1110.7
2017-Feb-05 21:33N 34°11' E 134°60'5 5.3
2017-Feb-05 20:33N 34°06' E 134°59'6 5.7
2017-Feb-05 19:30N 33°60' E 134°59'7 5.9
2017-Feb-05 18:15N 33°52' E 134°58'  
Track history (hours):
 
Tides and Currents Weather Stations Pressure Air Temp Water Temp Dewpoint Dewpoint Depression Visibility Wind Speed Wind Dir Waves Ship Positions

Sakaide Maru

Last reported at 2017-Feb-13 08:08 UTC. Time now 2017-Feb-21 05:35 UTC.
Position N 33°58' E 134°57'.

Length 255 m; draft 7.8 m.

Type: Ship. MMSI: 354898000.

Date/timePositionNaut miles runAvg speedWind from/ knotsBaromVisibWave heightAir tempDewpointWater temp
2017-Feb-13 08:08N 33°58' E 134°57'813.1
2017-Feb-13 07:33N 34°06' E 134°57'1313.5
2017-Feb-13 06:33N 34°19' E 134°59'1413.8
2017-Feb-13 05:33N 34°32' E 135°05'9 8.6
2017-Feb-13 04:33N 34°36' E 134°56'1313.3
2017-Feb-13 03:32N 34°30' E 134°41'  
2017-Feb-07 02:25N 34°36' E 134°54'7 8.2
2017-Feb-07 01:31N 34°37' E 135°03'8 7.7
2017-Feb-07 00:33N 34°35' E 135°11'0 0.1
2017-Feb-06 23:25N 34°34' E 135°11'0 0.0
2017-Feb-06 22:31N 34°35' E 135°11'0 0.0
2017-Feb-06 21:31N 34°35' E 135°11'0 0.0
2017-Feb-06 20:31N 34°34' E 135°11'0 0.0
2017-Feb-06 19:25N 34°35' E 135°11'0 0.1
2017-Feb-06 18:31N 34°35' E 135°11'0 0.0
2017-Feb-06 17:31N 34°35' E 135°11'0 0.0
2017-Feb-06 16:31N 34°35' E 135°11'0 0.0
2017-Feb-06 15:31N 34°35' E 135°11'0 0.0
2017-Feb-06 14:31N 34°34' E 135°11'0 0.0
2017-Feb-06 13:31N 34°34' E 135°11'0 0.1
2017-Feb-06 12:31N 34°34' E 135°11'0 0.0
2017-Feb-06 11:31N 34°34' E 135°11'0 0.0
2017-Feb-06 10:25N 34°34' E 135°11'0 0.1
2017-Feb-06 09:31N 34°34' E 135°11'0 0.0
2017-Feb-06 08:19N 34°34' E 135°11'0 0.0
2017-Feb-06 06:31N 34°34' E 135°11'0 0.1
2017-Feb-06 05:31N 34°35' E 135°11'0 0.0
2017-Feb-06 04:31N 34°35' E 135°11'0 0.0
2017-Feb-06 03:31N 34°35' E 135°11'0 0.1
2017-Feb-06 02:31N 34°35' E 135°11'0 0.0
2017-Feb-06 01:31N 34°35' E 135°11'0 0.4
2017-Feb-06 00:33N 34°35' E 135°11'4 4.3
2017-Feb-05 23:33N 34°31' E 135°07'1110.9
2017-Feb-05 22:33N 34°22' E 135°02'1110.7
2017-Feb-05 21:33N 34°11' E 134°60'5 5.3
2017-Feb-05 20:33N 34°06' E 134°59'6 5.7
2017-Feb-05 19:30N 33°60' E 134°59'7 5.9
2017-Feb-05 18:15N 33°52' E 134°58'  

Dump ship's entire track history